Herat, Afghanistan
Current Conditions -  °F | °C
As of 3:55 PM on Friday 24 Oct 2014 (Local Time) from OAHR Reporting Station
Broken Clouds Broken Clouds  
Wind Chill: 77°   Ceiling: 15000
Heat Index: 77°   Visibility: 6mi
Dew Point: 34°   Wind: 7mph
Humidity: 21%   Direction: 320°NW
Pressure: 30"   Gusts: NA
Location:  34.35°N, 62.18°E
Report Text: OAHR 241155Z 32006KT 9999 BKN150 25/01 Q1016 RMK BKN VIS MIN 9999 BLU
Loading
Personal Weather Stations






























Interactive Weather Map
Tropical Storm Tracking
New forecast layout! Learn more

10-Day Weather Forecast

Advertisements
Track Severe Weather on mobile